Time;durP1;ratioP1;P1;durP2;ratioP2;P2;SDS_P1;SDS_P2;PMS_P1;PMS_P2;Temp;Humidity;BMP_temperature;BMP_pressure;BME280_temperature;BME280_humidity;BME280_pressure;Samples;Min_cycle;Max_cycle;Signal;HPM_P1;HPM_P2
2022/11/14 00:01:35;;;;;;;20.45;12.68;;;;;;;3.18;100.00;101471.47;5029308;28;20067;-77
2022/11/14 00:04:18;;;;;;;18.38;12.02;;;;;;;3.19;100.00;101475.91;5045411;28;20459;-77
2022/11/14 00:07:02;;;;;;;21.27;13.43;;;;;;;3.11;99.54;101467.22;5047526;28;20143;-77
2022/11/14 00:09:46;;;;;;;18.77;12.05;;;;;;;3.07;99.45;101464.59;5048051;28;20518;-76
2022/11/14 00:12:30;;;;;;;19.70;12.35;;;;;;;3.04;99.37;101458.47;5028500;28;20119;-76
2022/11/14 00:15:14;;;;;;;18.15;12.15;;;;;;;2.98;98.94;101453.25;5031311;28;20060;-77
2022/11/14 00:17:58;;;;;;;19.77;12.40;;;;;;;2.97;99.28;101470.31;5039056;28;20072;-77
2022/11/14 00:20:42;;;;;;;17.52;10.93;;;;;;;2.93;98.73;101457.91;5033489;28;20095;-76
2022/11/14 00:23:26;;;;;;;18.38;11.77;;;;;;;2.89;98.92;101454.47;5043436;28;20139;-77
2022/11/14 00:26:10;;;;;;;19.23;12.15;;;;;;;2.88;98.77;101459.84;5040815;28;20239;-76
2022/11/14 00:28:55;;;;;;;20.45;11.65;;;;;;;2.90;99.21;101460.72;5027567;28;20537;-77
2022/11/14 00:31:40;;;;;;;16.67;11.35;;;;;;;2.86;98.74;101459.91;5028159;28;20271;-75
2022/11/14 00:34:24;;;;;;;20.15;11.57;;;;;;;2.84;98.55;101458.19;5030770;28;20056;-76
2022/11/14 00:37:08;;;;;;;17.48;10.98;;;;;;;2.81;98.86;101451.13;5042041;28;20117;-77
2022/11/14 00:39:52;;;;;;;20.45;12.13;;;;;;;2.78;99.12;101445.84;5028141;28;20610;-76
2022/11/14 00:42:35;;;;;;;17.80;10.85;;;;;;;2.71;98.95;101433.53;5027385;28;20049;-76
2022/11/14 00:45:19;;;;;;;15.57;10.88;;;;;;;2.73;98.97;101451.34;5027712;28;20098;-76
2022/11/14 00:48:04;;;;;;;20.52;11.10;;;;;;;2.71;99.00;101444.28;5027795;28;20516;-76
2022/11/14 00:50:48;;;;;;;15.85;11.05;;;;;;;2.72;99.13;101451.41;5027502;28;20554;-76
2022/11/14 00:53:31;;;;;;;17.75;10.80;;;;;;;2.66;98.82;101448.88;5027815;28;20055;-76
2022/11/14 00:56:15;;;;;;;18.70;10.50;;;;;;;2.65;98.89;101445.31;5026729;28;20052;-76
2022/11/14 00:58:59;;;;;;;20.27;11.07;;;;;;;2.63;99.03;101432.88;5028140;28;20162;-76
2022/11/14 01:01:43;;;;;;;14.40;10.27;;;;;;;2.57;99.01;101425.88;5026768;28;20057;-76
2022/11/14 01:04:27;;;;;;;16.80;11.50;;;;;;;2.61;99.09;101427.56;5043698;28;20083;-76
2022/11/14 01:07:11;;;;;;;15.00;10.18;;;;;;;2.54;98.99;101416.09;5026967;28;20048;-75
2022/11/14 01:09:56;;;;;;;18.58;10.48;;;;;;;2.52;99.12;101409.03;5027081;28;20511;-76
2022/11/14 01:12:40;;;;;;;16.42;10.75;;;;;;;2.50;99.22;101408.19;5027632;28;20474;-75
2022/11/14 01:15:24;;;;;;;16.08;11.18;;;;;;;2.52;99.60;101400.97;5034289;28;20115;-76
2022/11/14 01:18:14;;;;;;;16.95;10.23;;;;;;;2.57;99.83;101403.53;5031747;28;20040;-76
2022/11/14 01:20:58;;;;;;;16.58;11.60;;;;;;;2.53;98.96;101397.34;5031377;28;20404;-77
2022/11/14 01:23:42;;;;;;;15.50;10.38;;;;;;;2.51;98.62;101396.50;5031506;28;20115;-76
2022/11/14 01:26:25;;;;;;;17.45;10.85;;;;;;;2.43;99.03;101383.34;5038841;28;20048;-77
2022/11/14 01:29:09;;;;;;;14.77;10.27;;;;;;;2.45;99.30;101394.03;5051587;28;20102;-75
2022/11/14 01:31:54;;;;;;;19.23;10.35;;;;;;;2.40;98.67;101372.69;5030516;28;20052;-76
2022/11/14 01:34:38;;;;;;;17.33;10.20;;;;;;;2.39;98.63;101376.28;5031550;28;20475;-76
2022/11/14 01:37:22;;;;;;;15.02;9.90;;;;;;;2.35;98.58;101374.63;5029822;28;20381;-76
2022/11/14 01:40:06;;;;;;;16.85;10.90;;;;;;;2.32;98.35;101363.09;5043092;28;20059;-77
2022/11/14 01:43:33;;;;;;;15.95;9.65;;;;;;;2.31;97.84;101362.22;5049150;28;20047;-77
2022/11/14 01:46:34;;;;;;;18.15;9.75;;;;;;;2.27;97.88;101376.66;5013587;28;20433;-77
2022/11/14 01:49:28;;;;;;;13.70;8.52;;;;;;;2.24;98.35;101369.59;5030869;28;20567;-76
2022/11/14 01:52:16;;;;;;;19.33;10.65;;;;;;;2.20;98.70;101367.91;5029649;28;20132;-76
2022/11/14 01:55:04;;;;;;;16.80;10.20;;;;;;;2.19;98.82;101367.94;5031045;28;20107;-76
2022/11/14 01:57:49;;;;;;;15.20;9.52;;;;;;;2.18;98.76;101367.06;5050170;28;20051;-77
2022/11/14 02:00:32;;;;;;;15.63;8.98;;;;;;;2.17;98.09;101370.66;5040313;28;20056;-75
2022/11/14 02:03:18;;;;;;;17.13;10.02;;;;;;;2.17;98.02;101372.47;5030374;28;20064;-77
2022/11/14 02:06:03;;;;;;;14.63;8.93;;;;;;;2.14;97.85;101370.75;5029915;28;20084;-77
2022/11/14 02:08:49;;;;;;;14.82;9.43;;;;;;;2.10;97.50;101361.06;5030223;28;20055;-78
2022/11/14 02:11:45;;;;;;;13.70;9.30;;;;;;;2.12;98.41;101367.25;5029101;28;20064;-77
2022/11/14 02:14:29;;;;;;;13.85;9.18;;;;;;;2.13;98.05;101360.94;5030200;28;20048;-77
2022/11/14 02:17:15;;;;;;;18.50;8.82;;;;;;;2.10;98.03;101361.06;5041391;28;20044;-78
2022/11/14 02:20:08;;;;;;;13.93;7.82;;;;;;;2.06;97.50;101356.69;5029131;28;20048;-76
2022/11/14 02:22:52;;;;;;;;;;;;;;;2.06;97.11;101351.34;5030576;28;20043;-76
2022/11/14 02:25:37;;;;;;;11.38;8.02;;;;;;;2.03;98.06;101351.41;5028975;28;19924;-76
2022/11/14 02:28:22;;;;;;;14.27;7.97;;;;;;;1.95;97.52;101340.00;5029885;28;20519;-76
2022/11/14 02:31:06;;;;;;;14.02;8.57;;;;;;;1.90;97.40;101331.22;5030130;28;20064;-76
2022/11/14 02:33:50;;;;;;;14.07;8.68;;;;;;;1.84;98.07;101342.13;5029746;28;20480;-76
2022/11/14 02:36:34;;;;;;;18.25;8.98;;;;;;;1.84;97.69;101339.47;5029523;28;20052;-76
2022/11/14 02:39:18;;;;;;;13.05;8.77;;;;;;;1.81;97.89;101339.53;5028865;28;20087;-76
2022/11/14 02:42:02;;;;;;;13.90;8.35;;;;;;;1.78;98.13;101340.50;5029855;28;20064;-76
2022/11/14 02:44:46;;;;;;;18.60;8.63;;;;;;;1.74;98.32;101341.53;5029748;28;20136;-76
2022/11/14 02:47:29;;;;;;;14.07;8.73;;;;;;;1.68;98.04;101329.16;5028155;28;20099;-76
2022/11/14 02:50:14;;;;;;;14.05;8.50;;;;;;;1.64;98.12;101332.84;5028204;28;20055;-76
2022/11/14 02:52:58;;;;;;;11.27;7.40;;;;;;;1.62;98.19;101328.44;5029228;28;20099;-76
2022/11/14 02:55:42;;;;;;;14.48;9.15;;;;;;;1.62;98.38;101323.94;5030661;28;20059;-75
2022/11/14 02:58:26;;;;;;;13.07;8.73;;;;;;;1.60;98.17;101325.81;5047969;28;20110;-76
2022/11/14 03:01:10;;;;;;;12.65;7.95;;;;;;;1.53;97.82;101327.75;5035358;28;20064;-75
2022/11/14 03:03:54;;;;;;;13.82;8.80;;;;;;;1.47;97.92;101327.06;5047025;28;20087;-76
2022/11/14 03:06:38;;;;;;;14.02;8.02;;;;;;;1.46;97.93;101315.47;5048147;28;20535;-76
2022/11/14 03:09:21;;;;;;;12.43;8.75;;;;;;;1.44;97.94;101316.41;5049096;28;20072;-75
2022/11/14 03:12:06;;;;;;;13.38;8.85;;;;;;;1.44;97.96;101319.97;5034910;28;20068;-77
2022/11/14 03:14:50;;;;;;;12.38;8.32;;;;;;;1.41;98.31;101312.03;5030791;28;20083;-76
2022/11/14 03:17:34;;;;;;;14.05;9.00;;;;;;;1.42;99.07;101310.22;5039323;28;20543;-76
2022/11/14 03:20:18;;;;;;;15.73;8.77;;;;;;;1.42;98.60;101307.53;5032864;28;20102;-76
2022/11/14 03:23:03;;;;;;;13.40;8.35;;;;;;;1.40;98.55;101304.00;5028273;28;20049;-76
2022/11/14 03:25:47;;;;;;;13.02;8.05;;;;;;;1.36;98.52;101305.91;5030100;28;20041;-76
2022/11/14 03:28:31;;;;;;;16.75;9.38;;;;;;;1.34;98.77;101309.56;5049087;28;20055;-75
2022/11/14 03:31:15;;;;;;;13.48;8.07;;;;;;;1.33;98.81;101310.47;5033246;28;20119;-76
2022/11/14 03:33:59;;;;;;;14.95;8.27;;;;;;;1.34;98.63;101305.06;5028731;28;20511;-76
2022/11/14 03:36:43;;;;;;;14.32;8.30;;;;;;;1.27;98.26;101303.50;5028111;28;20548;-77
2022/11/14 03:39:27;;;;;;;12.73;8.23;;;;;;;1.23;98.02;101299.13;5028975;28;20405;-76
2022/11/14 03:42:11;;;;;;;11.90;7.82;;;;;;;1.19;97.86;101290.28;5028401;28;20076;-76
2022/11/14 03:44:55;;;;;;;12.77;8.13;;;;;;;1.17;97.72;101294.81;5028354;28;20543;-77
2022/11/14 03:47:39;;;;;;;13.50;8.05;;;;;;;1.12;97.84;101294.06;5028595;28;20103;-78
2022/11/14 03:50:23;;;;;;;13.40;8.40;;;;;;;1.12;98.02;101298.50;5028155;28;20072;-77
2022/11/14 03:53:07;;;;;;;11.20;8.00;;;;;;;1.10;98.14;101295.88;5028987;28;20798;-78
2022/11/14 03:55:51;;;;;;;14.07;8.75;;;;;;;1.07;98.38;101285.22;5041426;28;20049;-77
2022/11/14 03:58:35;;;;;;;13.38;8.70;;;;;;;1.08;98.67;101289.69;5041855;28;20056;-76
2022/11/14 04:01:19;;;;;;;15.95;9.45;;;;;;;1.09;99.26;101282.53;5028473;28;20052;-77
2022/11/14 04:04:03;;;;;;;15.65;9.18;;;;;;;1.08;99.39;101284.34;5028208;28;20051;-75
2022/11/14 04:06:47;;;;;;;14.68;9.10;;;;;;;1.11;99.68;101288.72;5027114;28;20147;-76
2022/11/14 04:09:31;;;;;;;13.52;9.30;;;;;;;1.10;99.52;101277.13;5028780;28;20095;-76
2022/11/14 04:12:15;;;;;;;14.80;8.65;;;;;;;1.09;99.19;101279.84;5028371;28;20111;-76
2022/11/14 04:14:58;;;;;;;11.98;8.10;;;;;;;1.04;99.08;101263.91;5031204;28;20457;-75
2022/11/14 04:17:44;;;;;;;13.95;8.75;;;;;;;1.06;99.17;101266.53;5035990;28;20044;-76
2022/11/14 04:20:27;;;;;;;17.25;8.77;;;;;;;1.04;99.39;101263.91;5036745;28;20576;-76
2022/11/14 04:23:11;;;;;;;12.50;8.43;;;;;;;1.02;99.21;101263.03;5026983;28;20044;-77
2022/11/14 04:25:56;;;;;;;16.60;9.50;;;;;;;1.01;99.42;101256.81;5029500;28;20084;-77
2022/11/14 04:28:40;;;;;;;15.32;9.13;;;;;;;1.00;99.44;101252.38;5028456;28;20059;-75
2022/11/14 04:31:24;;;;;;;13.77;9.30;;;;;;;0.98;99.39;101251.56;5027802;28;20183;-76
2022/11/14 04:34:08;;;;;;;17.73;9.95;;;;;;;0.97;99.95;101256.94;5027503;28;20116;-77
2022/11/14 04:36:52;;;;;;;14.38;8.57;;;;;;;0.99;99.91;101257.78;5027784;28;20449;-77
2022/11/14 04:39:36;;;;;;;13.57;9.77;;;;;;;0.96;99.79;101256.06;5028620;28;20067;-78
2022/11/14 04:42:20;;;;;;;13.27;8.45;;;;;;;0.91;99.53;101244.59;5028026;28;20049;-77
2022/11/14 04:45:04;;;;;;;12.00;8.07;;;;;;;0.86;99.39;101249.19;5027306;28;20128;-77
2022/11/14 04:47:48;;;;;;;15.73;10.48;;;;;;;0.84;99.83;101242.09;5027910;28;20048;-77
2022/11/14 04:50:32;;;;;;;12.73;8.35;;;;;;;0.81;99.31;101242.19;5042819;28;20055;-77
2022/11/14 04:53:15;;;;;;;15.93;9.02;;;;;;;0.80;99.17;101246.69;5051851;28;20415;-77
2022/11/14 04:55:59;;;;;;;12.73;7.82;;;;;;;0.76;98.55;101242.31;5044108;28;20099;-77
2022/11/14 04:58:43;;;;;;;13.60;8.35;;;;;;;0.71;98.75;101242.44;5031916;28;20044;-78
2022/11/14 05:01:27;;;;;;;13.82;8.23;;;;;;;0.71;98.75;101245.09;5031514;28;20052;-78
2022/11/14 05:04:11;;;;;;;14.15;8.55;;;;;;;0.69;98.83;101244.25;5031722;28;20634;-78
2022/11/14 05:06:55;;;;;;;12.45;8.35;;;;;;;0.67;98.88;101242.56;5029996;28;20145;-77
2022/11/14 05:09:39;;;;;;;14.13;8.07;;;;;;;0.64;99.17;101245.28;5031727;28;20060;-78
2022/11/14 05:12:23;;;;;;;14.40;8.52;;;;;;;0.60;99.23;101239.13;5045171;28;20060;-78
2022/11/14 05:15:07;;;;;;;12.65;8.38;;;;;;;0.61;99.53;101229.31;5045375;28;20048;-78
2022/11/14 05:17:51;;;;;;;14.00;8.98;;;;;;;0.58;99.48;101235.63;5031393;28;20451;-77
2022/11/14 05:20:35;;;;;;;15.13;9.18;;;;;;;0.56;99.68;101221.41;5041737;28;20055;-77
2022/11/14 05:23:21;;;;;;;14.20;8.65;;;;;;;0.54;99.46;101219.69;5050805;28;20503;-76
2022/11/14 05:26:10;;;;;;;11.93;8.07;;;;;;;0.50;99.18;101214.38;5041292;28;20068;-77
2022/11/14 05:28:54;;;;;;;12.23;7.50;;;;;;;0.45;99.23;101204.72;5030991;28;20048;-77
2022/11/14 05:31:38;;;;;;;16.27;8.52;;;;;;;0.43;99.07;101217.28;5031105;28;20215;-77
2022/11/14 05:34:21;;;;;;;12.02;7.80;;;;;;;0.43;99.22;101210.13;5031070;28;20052;-77
2022/11/14 05:37:06;;;;;;;13.90;8.93;;;;;;;0.41;99.46;101208.38;5030760;28;20515;-77
2022/11/14 05:39:49;;;;;;;12.63;7.85;;;;;;;0.37;99.37;101202.22;5031126;28;20048;-77
2022/11/14 05:42:33;;;;;;;13.63;9.13;;;;;;;0.38;99.39;101211.16;5030858;28;20051;-77
2022/11/14 05:45:17;;;;;;;12.82;7.82;;;;;;;0.35;99.60;101206.75;5031991;28;20063;-78
2022/11/14 05:48:01;;;;;;;14.57;7.68;;;;;;;0.34;99.50;101204.13;5039423;28;20072;-77
2022/11/14 05:50:45;;;;;;;12.85;7.90;;;;;;;0.31;99.24;101198.84;5030945;28;20115;-78
2022/11/14 05:53:30;;;;;;;15.48;8.45;;;;;;;0.29;99.61;101201.56;5030573;28;20103;-77
2022/11/14 05:56:14;;;;;;;12.88;7.88;;;;;;;0.30;99.47;101203.31;5030536;28;20171;-77
2022/11/14 05:58:58;;;;;;;17.50;9.07;;;;;;;0.31;99.90;101199.72;5030790;28;20107;-77
2022/11/14 06:01:42;;;;;;;15.65;8.77;;;;;;;0.32;100.00;101203.25;5029602;28;20127;-77
2022/11/14 06:04:26;;;;;;;13.73;8.45;;;;;;;0.31;100.00;101207.75;5032073;28;20067;-77
2022/11/14 06:07:09;;;;;;;17.40;9.13;;;;;;;0.32;100.00;101195.25;5050492;28;20082;-77
2022/11/14 06:09:53;;;;;;;16.48;9.20;;;;;;;0.31;99.72;101199.72;5049159;28;20463;-76
2022/11/14 06:12:38;;;;;;;12.65;8.00;;;;;;;0.32;100.00;101198.78;5049020;28;20106;-77
2022/11/14 06:15:22;;;;;;;14.32;8.95;;;;;;;0.33;99.95;101205.06;5042726;28;20103;-76
2022/11/14 06:18:06;;;;;;;13.52;8.48;;;;;;;0.26;99.99;101196.28;5034114;28;20045;-77
2022/11/14 06:20:50;;;;;;;15.57;8.55;;;;;;;0.24;100.00;101207.03;5029013;28;20067;-77
2022/11/14 06:23:34;;;;;;;11.52;8.40;;;;;;;0.25;99.95;101207.91;5030446;28;20098;-77
2022/11/14 06:26:22;;;;;;;14.93;8.30;;;;;;;0.23;99.56;101217.75;5030324;28;20054;-76
2022/11/14 06:29:06;;;;;;;12.73;7.60;;;;;;;0.19;99.53;101202.72;5029732;28;20091;-77
2022/11/14 06:31:50;;;;;;;12.05;7.72;;;;;;;0.17;99.54;101205.41;5030103;28;20068;-77
2022/11/14 06:34:34;;;;;;;13.57;8.18;;;;;;;0.18;99.53;101203.59;5030159;28;20596;-77
2022/11/14 06:37:18;;;;;;;12.15;8.20;;;;;;;0.14;99.25;101210.84;5028244;28;20095;-77
2022/11/14 06:40:02;;;;;;;16.55;8.18;;;;;;;0.10;99.46;101203.81;5029857;28;20048;-77
2022/11/14 06:42:46;;;;;;;14.63;8.52;;;;;;;0.10;99.70;101205.59;5028237;28;20051;-77
2022/11/14 06:45:31;;;;;;;15.88;8.30;;;;;;;0.09;99.83;101203.81;5030059;28;20049;-76
2022/11/14 06:48:15;;;;;;;12.73;8.00;;;;;;;0.08;99.56;101208.28;5029357;28;20401;-77
2022/11/14 06:50:59;;;;;;;14.43;8.73;;;;;;;0.07;99.80;101195.84;5043926;28;20056;-76
2022/11/14 06:53:44;;;;;;;14.98;8.35;;;;;;;0.09;99.45;101214.50;5049904;28;20055;-77
2022/11/14 06:56:28;;;;;;;12.98;7.72;;;;;;;0.06;98.98;101211.94;5038395;28;20064;-77
2022/11/14 06:59:13;;;;;;;15.73;7.95;;;;;;;0.06;99.15;101214.59;5036134;28;20064;-77
2022/11/14 07:01:57;;;;;;;13.18;7.53;;;;;;;0.05;98.99;101211.06;5034490;28;20534;-76
2022/11/14 07:04:41;;;;;;;12.95;8.15;;;;;;;0.05;99.08;101215.50;5034005;28;20499;-76
2022/11/14 07:07:25;;;;;;;18.52;8.00;;;;;;;0.04;98.89;101219.09;5037907;28;20590;-75
2022/11/14 07:10:09;;;;;;;15.70;8.50;;;;;;;0.04;99.00;101224.44;5039768;28;20451;-76
2022/11/14 07:12:53;;;;;;;11.23;7.43;;;;;;;0.03;98.97;101225.38;5038134;28;20051;-75
2022/11/14 07:15:37;;;;;;;14.60;8.27;;;;;;;0.01;98.72;101225.41;5038757;28;20064;-76
2022/11/14 07:18:20;;;;;;;14.25;7.38;;;;;;;0.05;98.71;101234.22;5037720;28;20617;-76
2022/11/14 07:21:05;;;;;;;15.23;8.68;;;;;;;0.07;98.98;101224.38;5039899;28;20114;-76
2022/11/14 07:23:49;;;;;;;12.88;8.55;;;;;;;0.08;99.12;101228.81;5036644;28;20047;-75
2022/11/14 07:26:33;;;;;;;21.17;8.77;;;;;;;0.11;99.02;101231.41;5037095;28;20128;-75
2022/11/14 07:29:17;;;;;;;14.70;8.73;;;;;;;0.12;98.85;101222.47;5038413;28;20433;-75
2022/11/14 07:32:01;;;;;;;12.82;8.32;;;;;;;0.15;98.87;101220.63;5037228;28;20040;-76
2022/11/14 07:34:45;;;;;;;12.68;8.43;;;;;;;0.15;98.77;101209.91;5037773;28;20063;-75
2022/11/14 07:37:29;;;;;;;16.20;8.15;;;;;;;0.19;98.87;101216.09;5037957;28;20052;-75
2022/11/14 07:40:13;;;;;;;16.20;8.68;;;;;;;0.19;99.16;101213.41;5038507;28;20471;-75
2022/11/14 07:42:59;;;;;;;12.98;8.18;;;;;;;0.23;99.32;101207.03;5037137;28;20110;-75
2022/11/14 07:45:42;;;;;;;13.98;8.10;;;;;;;0.24;99.26;101206.16;5040710;28;20049;-75
2022/11/14 07:48:30;;;;;;;12.95;7.45;;;;;;;0.24;99.76;101214.16;5038019;28;20044;-75
2022/11/14 07:51:17;;;;;;;17.75;9.80;;;;;;;0.29;99.84;101203.34;5038909;28;20106;-75
2022/11/14 07:54:01;;;;;;;14.65;8.50;;;;;;;0.31;99.71;101198.84;5037273;28;20090;-75
2022/11/14 07:56:44;;;;;;;12.43;7.53;;;;;;;0.35;99.41;101196.03;5037141;28;20056;-75
2022/11/14 07:59:28;;;;;;;13.60;8.20;;;;;;;0.40;99.69;101199.47;5027854;28;20052;-75
2022/11/14 08:02:13;;;;;;;13.35;8.10;;;;;;;0.47;100.00;101205.59;5028887;28;20382;-76
2022/11/14 08:04:57;;;;;;;13.40;7.70;;;;;;;0.50;100.00;101189.41;5031891;28;20056;-78
2022/11/14 08:07:42;;;;;;;16.00;9.35;;;;;;;0.55;100.00;101187.50;5027031;28;20087;-78
2022/11/14 08:10:26;;;;;;;16.63;10.10;;;;;;;0.60;100.00;101184.72;5026181;28;20068;-78
2022/11/14 08:13:10;;;;;;;13.98;9.90;;;;;;;0.69;100.00;101190.69;5026405;28;20052;-79
2022/11/14 08:15:54;;;;;;;16.48;10.68;;;;;;;0.73;100.00;101178.13;5036598;28;20159;-80
2022/11/14 08:18:38;;;;;;;16.77;10.00;;;;;;;0.78;100.00;101168.16;5042349;28;20055;-78
2022/11/14 08:21:22;;;;;;;19.75;9.93;;;;;;;0.84;100.00;101165.34;5028058;28;20056;-77
2022/11/14 08:24:07;;;;;;;16.75;10.38;;;;;;;0.94;100.00;101168.66;5028582;28;20056;-78
2022/11/14 08:26:51;;;;;;;20.83;10.88;;;;;;;1.05;100.00;101165.66;5030449;28;20483;-78
2022/11/14 08:29:35;;;;;;;17.45;11.25;;;;;;;1.12;100.00;101167.22;5031673;28;20111;-79
2022/11/14 08:32:19;;;;;;;19.05;10.52;;;;;;;1.22;100.00;101169.63;5029603;28;20552;-79
2022/11/14 08:35:04;;;;;;;18.20;11.05;;;;;;;1.33;100.00;101169.31;5029598;28;20060;-78
2022/11/14 08:37:48;;;;;;;22.45;12.30;;;;;;;1.45;100.00;101166.28;5028717;28;20043;-78
2022/11/14 08:40:32;;;;;;;25.40;12.93;;;;;;;1.55;100.00;101160.63;5031208;28;20086;-77
2022/11/14 08:43:16;;;;;;;27.05;13.35;;;;;;;1.71;100.00;101161.91;5030826;28;20118;-77
2022/11/14 08:46:02;;;;;;;22.42;13.23;;;;;;;1.84;100.00;101157.06;5038855;28;20849;-77
2022/11/14 08:48:46;;;;;;;24.08;12.88;;;;;;;1.94;100.00;101154.00;5033838;28;20071;-77
2022/11/14 08:51:30;;;;;;;26.23;13.90;;;;;;;2.08;100.00;101156.25;5029953;28;20118;-77
2022/11/14 08:54:13;;;;;;;23.27;13.30;;;;;;;2.25;100.00;101158.41;5030278;28;20049;-76
2022/11/14 08:56:57;;;;;;;26.05;14.85;;;;;;;2.40;100.00;101165.06;5038917;28;20048;-77
2022/11/14 08:59:41;;;;;;;28.75;14.40;;;;;;;2.53;100.00;101161.03;5048999;28;20150;-77
2022/11/14 09:02:25;;;;;;;27.88;13.98;;;;;;;2.68;100.00;101155.13;5029545;28;20056;-77
2022/11/14 09:05:09;;;;;;;25.63;14.40;;;;;;;2.83;100.00;101158.19;5029193;28;20148;-77
2022/11/14 09:07:53;;;;;;;22.83;14.88;;;;;;;2.93;100.00;101146.19;5029625;28;20087;-77
2022/11/14 09:10:37;;;;;;;22.25;13.70;;;;;;;3.05;100.00;101149.31;5029993;28;20076;-77
2022/11/14 09:13:21;;;;;;;25.40;13.45;;;;;;;3.14;100.00;101145.41;5026914;28;20159;-77
2022/11/14 09:16:05;;;;;;;25.02;14.15;;;;;;;3.26;100.00;101141.38;5028805;28;20596;-77
2022/11/14 09:18:49;;;;;;;25.77;14.65;;;;;;;3.39;100.00;101141.81;5027748;28;20119;-77
2022/11/14 09:21:33;;;;;;;24.17;13.90;;;;;;;3.51;100.00;101133.28;5026768;28;20088;-76
2022/11/14 09:24:17;;;;;;;22.80;13.80;;;;;;;3.63;100.00;101127.41;5030032;28;20052;-78
2022/11/14 09:27:01;;;;;;;21.80;13.82;;;;;;;3.76;100.00;101131.38;5029655;28;20044;-78
2022/11/14 09:29:45;;;;;;;23.40;13.93;;;;;;;3.87;100.00;101122.88;5028293;28;20420;-78
2022/11/14 09:32:29;;;;;;;21.75;13.60;;;;;;;4.01;100.00;101125.00;5028003;28;20124;-78
2022/11/14 09:35:13;;;;;;;23.67;14.55;;;;;;;4.14;100.00;101120.84;5035579;28;20051;-78
2022/11/14 09:38:05;;;;;;;23.55;13.90;;;;;;;4.27;100.00;101118.53;5035454;28;20049;-77
2022/11/14 09:41:07;;;;;;;25.15;13.85;;;;;;;4.42;100.00;101119.69;5029202;28;20132;-77
2022/11/14 09:44:05;;;;;;;23.90;14.32;;;;;;;4.56;100.00;101109.19;5044696;28;20044;-78
2022/11/14 09:46:57;;;;;;;22.73;13.45;;;;;;;4.73;100.00;101108.47;5028501;28;20125;-76
2022/11/14 09:49:44;;;;;;;26.10;13.27;;;;;;;4.86;99.91;101109.69;5031702;28;20416;-77
2022/11/14 09:52:32;;;;;;;22.85;13.80;;;;;;;5.00;99.00;101115.34;5048371;28;20479;-76
2022/11/14 09:55:20;;;;;;;21.65;13.40;;;;;;;5.14;99.68;101116.53;5027617;28;20167;-76
2022/11/14 09:58:09;;;;;;;21.58;13.38;;;;;;;5.25;99.45;101114.22;5029924;28;20044;-77
2022/11/14 10:01:08;;;;;;;20.00;12.27;;;;;;;5.34;98.43;101120.06;5028229;28;20052;-77
2022/11/14 10:04:14;;;;;;;23.92;12.90;;;;;;;5.46;98.70;101112.34;5028771;28;20126;-76
2022/11/14 10:07:14;;;;;;;20.95;13.07;;;;;;;5.59;97.40;101118.91;5026596;28;20044;-75
2022/11/14 10:10:14;;;;;;;21.98;13.70;;;;;;;5.72;97.81;101119.19;5027692;28;20076;-76
2022/11/14 10:13:24;;;;;;;21.90;13.57;;;;;;;5.83;98.40;101104.25;5027653;28;20496;-75
2022/11/14 10:16:59;;;;;;;19.02;12.90;;;;;;;5.98;96.52;101116.16;5034751;28;20415;-77
2022/11/14 10:20:02;;;;;;;19.67;12.18;;;;;;;6.14;95.65;101117.13;5022941;28;20075;-75
2022/11/14 10:23:00;;;;;;;22.70;14.10;;;;;;;6.30;95.15;101105.59;5030115;28;20047;-75
2022/11/14 10:25:53;;;;;;;23.50;13.63;;;;;;;6.51;94.49;101104.47;5027853;28;20053;-75
2022/11/14 10:28:51;;;;;;;22.35;13.55;;;;;;;6.74;95.92;101108.69;5028449;28;20428;-77
2022/11/14 10:31:41;;;;;;;20.50;12.70;;;;;;;6.89;92.46;101107.00;5027713;28;20151;-75
2022/11/14 10:34:31;;;;;;;21.35;13.27;;;;;;;7.00;92.47;101107.31;5027614;28;20056;-75
2022/11/14 10:37:29;;;;;;;19.15;12.40;;;;;;;7.19;92.83;101095.50;5027376;28;20098;-76
2022/11/14 10:40:20;;;;;;;24.77;13.63;;;;;;;7.37;91.46;101092.66;5027636;28;20147;-75
2022/11/14 10:43:17;;;;;;;21.90;14.07;;;;;;;7.48;90.38;101097.47;5037890;28;20055;-75
2022/11/14 10:46:26;;;;;;;24.13;12.27;;;;;;;7.60;89.76;101093.19;5025835;28;20057;-75
2022/11/14 10:49:18;;;;;;;23.17;13.88;;;;;;;7.71;88.34;101092.59;5027884;28;20052;-74
2022/11/14 10:52:06;;;;;;;19.30;11.75;;;;;;;7.87;88.73;101083.50;5026321;28;20510;-75
2022/11/14 10:54:58;;;;;;;19.75;12.82;;;;;;;8.03;89.69;101085.34;5039957;28;20051;-76
2022/11/14 10:57:46;;;;;;;20.88;13.13;;;;;;;8.28;89.15;101082.94;5026249;28;20049;-75
2022/11/14 11:00:30;;;;;;;21.48;13.13;;;;;;;8.37;85.80;101078.84;5027681;28;20344;-75
2022/11/14 11:03:14;;;;;;;18.13;11.70;;;;;;;8.35;85.58;101070.78;5035685;28;20079;-75
2022/11/14 11:05:58;;;;;;;20.85;12.52;;;;;;;8.50;86.36;101071.72;5032453;28;20049;-77
2022/11/14 11:11:58;;;;;;;21.17;13.75;;;;;;;8.66;83.99;101068.94;5026996;28;20616;-76
2022/11/14 11:14:43;;;;;;;20.63;12.18;;;;;;;8.80;84.18;101060.84;5027512;28;20107;-76
2022/11/14 11:17:28;;;;;;;23.67;13.20;;;;;;;8.91;83.96;101046.63;5027106;28;20144;-75
2022/11/14 11:20:24;;;;;;;21.08;13.07;;;;;;;9.00;83.40;101045.16;5026750;28;20389;-76
2022/11/14 11:23:08;;;;;;;22.45;13.43;;;;;;;9.18;84.35;101046.72;5025719;28;20795;-76
2022/11/14 11:25:59;;;;;;;23.40;13.20;;;;;;;9.24;83.30;101027.34;5041054;28;20583;-75
2022/11/14 11:29:01;;;;;;;20.95;13.63;;;;;;;9.36;82.92;101031.97;5026125;28;20095;-75
2022/11/14 11:31:57;;;;;;;22.55;13.80;;;;;;;9.42;82.22;101037.03;5038949;28;20499;-75
2022/11/14 11:34:41;;;;;;;23.80;12.23;;;;;;;9.47;81.14;101030.41;5028107;28;20043;-75
2022/11/14 11:37:38;;;;;;;24.83;13.57;;;;;;;9.52;82.07;101018.28;5046529;28;20047;-75
2022/11/14 11:40:26;;;;;;;22.60;13.48;;;;;;;9.57;79.53;101017.97;5025620;28;20084;-75
2022/11/14 11:43:19;;;;;;;22.60;13.45;;;;;;;9.55;80.35;101018.06;5027277;28;20048;-75
2022/11/14 11:46:10;;;;;;;21.60;13.90;;;;;;;9.65;79.94;101023.75;5035231;28;20118;-75
2022/11/14 11:49:04;;;;;;;22.17;14.18;;;;;;;9.79;82.29;101025.56;5031124;28;20060;-75
2022/11/14 11:51:53;;;;;;;23.23;14.07;;;;;;;9.78;79.06;101023.81;5044164;28;20511;-75
2022/11/14 11:55:09;;;;;;;21.05;13.23;;;;;;;9.83;80.69;101025.25;5046152;28;20127;-76
2022/11/14 11:58:03;;;;;;;23.30;14.15;;;;;;;9.78;79.79;101032.84;5026280;28;20263;-76
2022/11/14 12:00:51;;;;;;;23.33;13.90;;;;;;;9.64;77.92;101030.16;5026160;28;20443;-76
2022/11/14 12:03:35;;;;;;;23.25;14.68;;;;;;;9.59;79.65;101035.03;5025126;28;20060;-75
2022/11/14 12:06:24;;;;;;;23.58;13.38;;;;;;;9.57;79.95;101042.44;5026549;28;20040;-76
2022/11/14 12:09:18;;;;;;;25.63;14.82;;;;;;;9.57;80.24;101045.13;5027266;28;20056;-76
2022/11/14 12:12:11;;;;;;;24.77;14.82;;;;;;;9.49;78.95;101036.63;5026916;28;20390;-76
2022/11/14 12:15:20;;;;;;;27.48;15.88;;;;;;;9.46;80.42;101043.09;5026606;28;20562;-76
2022/11/14 12:18:21;;;;;;;29.30;15.60;;;;;;;9.41;80.97;101039.81;5025715;28;20096;-75
2022/11/14 12:21:12;;;;;;;26.02;16.20;;;;;;;9.38;81.34;101046.31;5027094;28;20156;-75
2022/11/14 12:24:09;;;;;;;28.58;16.35;;;;;;;9.38;80.54;101038.19;5026235;28;20102;-75
2022/11/14 12:27:17;;;;;;;30.65;17.23;;;;;;;9.34;80.81;101042.06;5034223;28;20523;-75
2022/11/14 12:30:22;;;;;;;27.65;16.30;;;;;;;9.24;80.85;101038.19;5025130;28;20115;-75
2022/11/14 12:33:27;;;;;;;31.65;17.75;;;;;;;9.11;82.14;101026.38;5034455;28;20078;-75
2022/11/14 12:36:12;;;;;;;29.88;16.80;;;;;;;9.07;82.59;101031.13;5029996;28;20104;-75
2022/11/14 12:38:58;;;;;;;29.50;17.40;;;;;;;9.04;81.64;101033.13;5026072;28;20496;-75
2022/11/14 12:41:41;;;;;;;31.25;17.35;;;;;;;8.97;81.29;101042.66;5025244;28;20053;-75
2022/11/14 12:44:25;;;;;;;29.00;17.40;;;;;;;8.96;82.78;101038.19;5025362;28;20152;-76
2022/11/14 12:47:18;;;;;;;26.85;17.42;;;;;;;8.92;82.75;101049.22;5025102;28;20087;-75
2022/11/14 12:50:05;;;;;;;29.67;17.73;;;;;;;8.89;83.04;101041.28;5024674;28;20115;-75
2022/11/14 12:52:51;;;;;;;32.53;18.48;;;;;;;8.87;82.48;101024.22;5025946;28;20064;-75